Time;durP1;ratioP1;P1;durP2;ratioP2;P2;SDS_P1;SDS_P2;PMS_P1;PMS_P2;Temp;Humidity;BMP_temperature;BMP_pressure;BME280_temperature;BME280_humidity;BME280_pressure;Samples;Min_cycle;Max_cycle;Signal;HPM_P1;HPM_P2
2021/12/24 00:01:22;;;;;;;145.00;36.15;;;;;;;;;;5013861;28;20052;-71
2021/12/24 00:03:48;;;;;;;156.00;35.60;;;;;;;;;;5029322;28;20087;-71
2021/12/24 00:06:15;;;;;;;140.90;34.17;;;;;;;;;;5030215;28;20564;-71
2021/12/24 00:08:43;;;;;;;151.55;35.65;;;;;;;;;;5030071;28;20034;-71
2021/12/24 00:11:09;;;;;;;162.88;38.38;;;;;;;;;;5030907;28;20048;-71
2021/12/24 00:13:38;;;;;;;142.95;36.80;;;;;;;;;;5030378;28;20041;-71
2021/12/24 00:16:16;;;;;;;147.23;37.65;;;;;;;;;;5030571;28;20495;-71
2021/12/24 00:18:51;;;;;;;180.02;38.55;;;;;;;;;;5029984;28;20055;-71
2021/12/24 00:37:38;;;;;;;154.82;35.25;;;;;;;;;;5034155;28;20053;-72
2021/12/24 00:42:31;;;;;;;121.68;32.60;;;;;;;;;;5033965;28;20041;-72
2021/12/24 00:44:57;;;;;;;115.20;29.75;;;;;;;;;;5033900;28;20107;-72
2021/12/24 00:47:24;;;;;;;114.15;30.25;;;;;;;;;;5033324;28;20117;-72
2021/12/24 00:49:50;;;;;;;123.72;31.25;;;;;;;;;;5032598;28;20064;-73
2021/12/24 00:52:21;;;;;;;127.53;31.80;;;;;;;;;;5032044;28;20482;-73
2021/12/24 00:55:05;;;;;;;114.82;29.63;;;;;;;;;;5031202;28;20037;-73
2021/12/24 00:57:32;;;;;;;115.72;29.85;;;;;;;;;;5033859;28;20046;-73
2021/12/24 00:59:58;;;;;;;113.43;28.55;;;;;;;;;;5033524;28;20045;-73
2021/12/24 01:02:24;;;;;;;108.95;28.40;;;;;;;;;;5032815;28;20049;-73
2021/12/24 01:04:50;;;;;;;89.30;27.55;;;;;;;;;;5031091;28;20052;-72
2021/12/24 01:07:16;;;;;;;94.72;26.02;;;;;;;;;;5032501;28;20041;-73
2021/12/24 01:09:43;;;;;;;91.05;25.90;;;;;;;;;;5031384;28;20040;-73
2021/12/24 01:12:09;;;;;;;95.55;26.40;;;;;;;;;;5032866;28;20514;-73
2021/12/24 01:14:35;;;;;;;103.05;26.98;;;;;;;;;;5031992;28;20069;-73
2021/12/24 01:17:17;;;;;;;103.82;26.27;;;;;;;;;;5030826;28;20124;-73
2021/12/24 01:19:46;;;;;;;80.22;23.98;;;;;;;;;;5023196;28;20049;-73
2021/12/24 01:24:59;;;;;;;87.80;25.33;;;;;;;;;;5030876;28;20048;-73
2021/12/24 01:38:11;;;;;;;62.42;21.13;;;;;;;;;;5013278;28;20525;-73
2021/12/24 01:40:51;;;;;;;70.72;21.58;;;;;;;;;;5033060;28;20041;-73
2021/12/24 01:43:17;;;;;;;66.93;21.73;;;;;;;;;;5032682;28;20038;-73
2021/12/24 01:45:46;;;;;;;75.90;23.10;;;;;;;;;;5032561;28;21671;-73
2021/12/24 01:48:12;;;;;;;75.13;22.45;;;;;;;;;;5032025;28;20115;-73
2021/12/24 01:50:42;;;;;;;82.85;24.08;;;;;;;;;;5031141;28;20045;-72
2021/12/24 01:53:08;;;;;;;72.72;21.67;;;;;;;;;;5032673;28;20050;-73
2021/12/24 01:55:35;;;;;;;64.20;20.70;;;;;;;;;;5030983;28;20053;-73
2021/12/24 01:58:01;;;;;;;63.55;21.10;;;;;;;;;;5032494;28;20120;-74
2021/12/24 02:00:29;;;;;;;49.22;17.05;;;;;;;;;;5031894;28;20038;-74
2021/12/24 02:02:55;;;;;;;47.35;16.42;;;;;;;;;;5032133;28;20060;-74
2021/12/24 02:05:22;;;;;;;52.55;16.63;;;;;;;;;;5014453;28;20128;-74
2021/12/24 02:07:48;;;;;;;49.67;17.23;;;;;;;;;;5014585;28;20084;-73
2021/12/24 02:10:15;;;;;;;44.10;15.90;;;;;;;;;;5032138;28;20057;-73
2021/12/24 02:12:41;;;;;;;51.15;17.40;;;;;;;;;;5032439;28;20033;-73
2021/12/24 02:15:12;;;;;;;55.10;17.25;;;;;;;;;;5031162;28;20116;-73
2021/12/24 02:28:39;;;;;;;47.97;16.35;;;;;;;;;;5026552;28;20060;-74
2021/12/24 02:31:13;;;;;;;52.03;16.10;;;;;;;;;;5028852;28;20038;-73
2021/12/24 02:33:39;;;;;;;39.38;14.60;;;;;;;;;;5032019;28;20038;-73
2021/12/24 02:36:06;;;;;;;41.00;15.13;;;;;;;;;;5031030;28;20087;-73
2021/12/24 02:38:33;;;;;;;39.35;14.65;;;;;;;;;;5031213;28;20491;-73
2021/12/24 02:40:59;;;;;;;37.15;15.38;;;;;;;;;;5029848;28;20045;-73
2021/12/24 02:43:25;;;;;;;46.40;16.55;;;;;;;;;;5030192;28;20550;-73
2021/12/24 02:45:56;;;;;;;38.67;14.82;;;;;;;;;;5028719;28;20069;-74
2021/12/24 02:53:59;;;;;;;42.40;15.77;;;;;;;;;;5012183;28;20114;-73
2021/12/24 02:56:29;;;;;;;49.20;16.27;;;;;;;;;;5030669;28;20491;-73
2021/12/24 02:58:55;;;;;;;43.00;15.05;;;;;;;;;;5031497;28;20041;-73
2021/12/24 03:01:24;;;;;;;40.20;15.45;;;;;;;;;;5032278;28;20045;-73
2021/12/24 03:03:51;;;;;;;34.22;13.07;;;;;;;;;;5037785;28;20442;-73
2021/12/24 03:06:19;;;;;;;43.08;15.23;;;;;;;;;;5028661;28;20060;-73
2021/12/24 03:08:44;;;;;;;42.60;14.68;;;;;;;;;;5028478;28;20096;-73
2021/12/24 03:11:11;;;;;;;40.17;14.88;;;;;;;;;;5027143;28;20069;-73
2021/12/24 03:13:37;;;;;;;42.30;14.18;;;;;;;;;;5027922;28;20041;-73
2021/12/24 03:16:04;;;;;;;41.00;14.38;;;;;;;;;;5027340;28;20120;-74
2021/12/24 03:18:33;;;;;;;32.15;13.32;;;;;;;;;;5029117;28;20045;-73
2021/12/24 03:21:26;;;;;;;43.83;14.48;;;;;;;;;;5030810;28;20068;-74
2021/12/24 03:26:41;;;;;;;28.85;12.32;;;;;;;;;;5021557;28;20045;-73
2021/12/24 03:29:08;;;;;;;34.28;12.90;;;;;;;;;;5028239;28;20034;-73
2021/12/24 03:31:34;;;;;;;36.97;12.82;;;;;;;;;;5027931;28;20034;-73
2021/12/24 03:34:00;;;;;;;37.90;13.70;;;;;;;;;;5021828;28;20036;-73
2021/12/24 03:36:27;;;;;;;38.58;13.38;;;;;;;;;;5030450;28;20042;-72
2021/12/24 03:38:53;;;;;;;40.72;14.07;;;;;;;;;;5031039;28;20637;-73
2021/12/24 03:41:19;;;;;;;36.88;12.75;;;;;;;;;;5030989;28;20406;-73
2021/12/24 03:43:45;;;;;;;29.08;11.48;;;;;;;;;;5028808;28;20042;-73
2021/12/24 03:46:15;;;;;;;33.05;11.30;;;;;;;;;;5030809;28;20121;-73
2021/12/24 03:56:25;;;;;;;20.27;8.90;;;;;;;;;;5029738;28;20438;-73
2021/12/24 03:58:51;;;;;;;19.38;8.48;;;;;;;;;;5032244;28;20033;-73
2021/12/24 04:01:17;;;;;;;26.02;9.90;;;;;;;;;;5024322;28;20132;-73
2021/12/24 04:03:43;;;;;;;23.73;9.80;;;;;;;;;;5022963;28;20064;-73
2021/12/24 04:06:09;;;;;;;34.28;11.13;;;;;;;;;;5034730;28;20133;-73
2021/12/24 04:08:35;;;;;;;31.17;11.38;;;;;;;;;;5034568;28;20112;-74
2021/12/24 04:11:01;;;;;;;30.73;11.98;;;;;;;;;;5026141;28;20037;-74
2021/12/24 04:13:27;;;;;;;28.58;11.73;;;;;;;;;;5032939;28;20041;-74
2021/12/24 04:15:53;;;;;;;28.88;11.30;;;;;;;;;;5034235;28;20411;-74
2021/12/24 04:18:34;;;;;;;35.67;13.20;;;;;;;;;;5033696;28;20052;-74
2021/12/24 04:26:30;;;;;;;45.13;16.67;;;;;;;;;;5028371;28;20125;-73
2021/12/24 04:28:56;;;;;;;44.35;17.33;;;;;;;;;;5051617;22;20137;-75
2021/12/24 04:31:29;;;;;;;45.92;16.98;;;;;;;;;;5040245;28;20108;-74
2021/12/24 04:33:59;;;;;;;44.80;16.33;;;;;;;;;;5053387;28;20108;-74
2021/12/24 04:52:50;;;;;;;46.95;17.98;;;;;;;;;;5048431;28;20037;-74
2021/12/24 05:03:34;;;;;;;56.65;19.92;;;;;;;;;;5031241;28;20418;-74
2021/12/24 05:06:12;;;;;;;65.03;21.13;;;;;;;;;;5030376;28;20060;-74
2021/12/24 05:08:54;;;;;;;63.05;19.30;;;;;;;;;;5032497;28;20041;-74
2021/12/24 05:11:19;;;;;;;;;;;;;;;;;;5033787;28;20045;-74
2021/12/24 05:13:46;;;;;;;51.17;19.48;;;;;;;;;;5032851;28;19940;-75
2021/12/24 05:16:19;;;;;;;66.13;21.88;;;;;;;;;;5040822;28;20046;-74
2021/12/24 05:21:34;;;;;;;52.83;19.73;;;;;;;;;;5044501;28;20545;-74
2021/12/24 05:24:00;;;;;;;60.05;20.40;;;;;;;;;;5052500;28;20099;-74
2021/12/24 05:26:26;;;;;;;57.83;19.90;;;;;;;;;;5046478;28;20037;-74
2021/12/24 05:28:52;;;;;;;62.85;19.75;;;;;;;;;;5005971;28;1001687;-74
2021/12/24 05:31:19;;;;;;;48.90;19.38;;;;;;;;;;5045218;28;20056;-74
2021/12/24 05:33:45;;;;;;;45.70;18.40;;;;;;;;;;5053481;28;20049;-74
2021/12/24 05:36:11;;;;;;;48.13;18.15;;;;;;;;;;5040605;28;20461;-75
2021/12/24 05:38:37;;;;;;;55.90;19.73;;;;;;;;;;5033261;28;20564;-74
2021/12/24 05:41:04;;;;;;;47.08;17.95;;;;;;;;;;5033777;28;20069;-75
2021/12/24 05:43:30;;;;;;;55.15;18.55;;;;;;;;;;5034069;28;20410;-75
2021/12/24 05:45:56;;;;;;;54.65;19.48;;;;;;;;;;5040957;28;20041;-74
2021/12/24 05:48:22;;;;;;;56.25;18.95;;;;;;;;;;5032718;28;20038;-74
2021/12/24 05:50:48;;;;;;;50.65;19.60;;;;;;;;;;5032658;28;20036;-75
2021/12/24 05:53:14;;;;;;;54.38;20.17;;;;;;;;;;5032791;28;20057;-75
2021/12/24 05:55:41;;;;;;;49.50;19.75;;;;;;;;;;5032799;28;20132;-75
2021/12/24 05:58:08;;;;;;;51.10;19.23;;;;;;;;;;5039205;28;20076;-75
2021/12/24 06:00:36;;;;;;;46.33;16.75;;;;;;;;;;5037488;28;20037;-75
2021/12/24 06:03:02;;;;;;;52.17;19.25;;;;;;;;;;5033583;28;20490;-75
2021/12/24 06:05:28;;;;;;;51.08;19.08;;;;;;;;;;5031089;28;20045;-76
2021/12/24 06:07:53;;;;;;;46.10;18.80;;;;;;;;;;5026754;28;20116;-75
2021/12/24 06:10:19;;;;;;;47.47;16.85;;;;;;;;;;5028001;28;20041;-75
2021/12/24 06:12:45;;;;;;;49.25;18.67;;;;;;;;;;5029771;28;20025;-76
2021/12/24 06:15:11;;;;;;;53.30;18.30;;;;;;;;;;5024892;28;20505;-76
2021/12/24 06:17:39;;;;;;;43.03;17.10;;;;;;;;;;5023187;28;20080;-76
2021/12/24 06:20:07;;;;;;;41.13;17.17;;;;;;;;;;5031122;28;20501;-76
2021/12/24 06:22:33;;;;;;;42.55;17.25;;;;;;;;;;5030839;28;20037;-75
2021/12/24 06:24:59;;;;;;;39.22;16.27;;;;;;;;;;5031183;28;20490;-75
2021/12/24 06:27:25;;;;;;;36.38;15.48;;;;;;;;;;5028758;28;20171;-75
2021/12/24 06:29:51;;;;;;;39.22;16.55;;;;;;;;;;5030873;28;20041;-75
2021/12/24 06:32:17;;;;;;;33.20;14.32;;;;;;;;;;5031232;28;20033;-75
2021/12/24 06:34:43;;;;;;;42.80;16.88;;;;;;;;;;5031942;28;20061;-75
2021/12/24 06:37:09;;;;;;;40.05;15.93;;;;;;;;;;5028325;28;20041;-75
2021/12/24 06:39:36;;;;;;;41.72;17.02;;;;;;;;;;5031486;28;20046;-75
2021/12/24 06:42:03;;;;;;;45.88;17.80;;;;;;;;;;5031835;28;20478;-75
2021/12/24 06:44:29;;;;;;;39.08;14.80;;;;;;;;;;5031842;28;20045;-75
2021/12/24 06:46:55;;;;;;;48.85;15.48;;;;;;;;;;5016313;28;20033;-75
2021/12/24 06:49:21;;;;;;;43.25;15.27;;;;;;;;;;5031847;28;20040;-75
2021/12/24 06:51:47;;;;;;;38.22;14.10;;;;;;;;;;5029348;28;20076;-76
2021/12/24 06:54:13;;;;;;;48.65;16.50;;;;;;;;;;5031195;28;20068;-76
2021/12/24 06:56:39;;;;;;;40.90;15.48;;;;;;;;;;5030512;28;20069;-76
2021/12/24 06:59:05;;;;;;;40.40;15.20;;;;;;;;;;5031879;28;20407;-76
2021/12/24 07:01:31;;;;;;;38.15;14.82;;;;;;;;;;5031748;28;20045;-76
2021/12/24 07:03:57;;;;;;;42.42;14.77;;;;;;;;;;5031714;28;20087;-76
2021/12/24 07:06:23;;;;;;;36.50;15.07;;;;;;;;;;5031340;28;20542;-76
2021/12/24 07:08:49;;;;;;;34.05;11.77;;;;;;;;;;5030986;28;20502;-76
2021/12/24 07:11:15;;;;;;;30.48;12.57;;;;;;;;;;5030501;28;20487;-75
2021/12/24 07:13:41;;;;;;;32.92;11.65;;;;;;;;;;5031501;28;20079;-75
2021/12/24 07:16:07;;;;;;;35.88;12.77;;;;;;;;;;5030513;28;20037;-75
2021/12/24 07:18:33;;;;;;;37.88;13.82;;;;;;;;;;5029105;28;20059;-75
2021/12/24 07:20:59;;;;;;;34.60;11.80;;;;;;;;;;5025531;28;20046;-74
2021/12/24 07:23:25;;;;;;;28.33;11.63;;;;;;;;;;5024543;28;20041;-72
2021/12/24 07:25:51;;;;;;;26.90;11.90;;;;;;;;;;5028066;28;20167;-71
2021/12/24 07:28:17;;;;;;;32.50;12.35;;;;;;;;;;5027787;28;20041;-71
2021/12/24 07:30:43;;;;;;;26.13;9.93;;;;;;;;;;5024030;28;20061;-71
2021/12/24 07:33:09;;;;;;;27.10;10.35;;;;;;;;;;5028688;28;20043;-71
2021/12/24 07:35:35;;;;;;;25.33;9.38;;;;;;;;;;5027418;28;20044;-71
2021/12/24 07:38:01;;;;;;;28.95;10.95;;;;;;;;;;5028935;28;20421;-71
2021/12/24 07:40:27;;;;;;;25.67;9.85;;;;;;;;;;5034286;28;20041;-72
2021/12/24 07:42:55;;;;;;;33.70;10.93;;;;;;;;;;5034271;28;20441;-72
2021/12/24 07:45:21;;;;;;;28.00;10.55;;;;;;;;;;5032389;28;20076;-72
2021/12/24 07:48:05;;;;;;;24.52;9.25;;;;;;;;;;5034118;28;20061;-72
2021/12/24 07:52:57;;;;;;;28.20;9.02;;;;;;;;;;5033643;28;20440;-72
2021/12/24 07:55:23;;;;;;;35.22;11.10;;;;;;;;;;5030830;28;20044;-71
2021/12/24 07:57:51;;;;;;;29.60;9.98;;;;;;;;;;5024035;28;20120;-72
2021/12/24 08:00:19;;;;;;;31.55;9.82;;;;;;;;;;5025890;28;20041;-72
2021/12/24 08:02:45;;;;;;;33.80;9.38;;;;;;;;;;5033654;28;20045;-72
2021/12/24 08:05:15;;;;;;;25.63;9.63;;;;;;;;;;5031422;28;20039;-72
2021/12/24 08:07:41;;;;;;;24.38;8.88;;;;;;;;;;5032186;28;20037;-72
2021/12/24 08:10:07;;;;;;;23.23;8.13;;;;;;;;;;5028823;28;20398;-72
2021/12/24 08:12:33;;;;;;;26.20;8.93;;;;;;;;;;5035071;28;20083;-72
2021/12/24 08:14:59;;;;;;;33.33;8.85;;;;;;;;;;5034204;28;20410;-72
2021/12/24 08:17:25;;;;;;;23.05;8.57;;;;;;;;;;5034415;28;20038;-72
2021/12/24 08:19:51;;;;;;;26.20;8.55;;;;;;;;;;5034383;28;20033;-72
2021/12/24 08:22:17;;;;;;;28.33;8.85;;;;;;;;;;5034336;28;20124;-72
2021/12/24 08:24:43;;;;;;;25.25;8.07;;;;;;;;;;5034509;28;20044;-72
2021/12/24 08:27:09;;;;;;;33.75;9.45;;;;;;;;;;5034518;28;20068;-72
2021/12/24 08:29:35;;;;;;;27.35;8.93;;;;;;;;;;5034355;28;20064;-72
2021/12/24 08:32:03;;;;;;;31.20;8.60;;;;;;;;;;5025810;28;20041;-72
2021/12/24 08:34:29;;;;;;;28.50;8.82;;;;;;;;;;5033973;28;20046;-72
2021/12/24 08:36:55;;;;;;;25.45;8.18;;;;;;;;;;5035340;28;20121;-72
2021/12/24 08:39:22;;;;;;;24.40;9.32;;;;;;;;;;5030120;28;20463;-72
2021/12/24 08:41:52;;;;;;;28.38;9.82;;;;;;;;;;5027637;28;20051;-72
2021/12/24 08:44:18;;;;;;;32.05;10.18;;;;;;;;;;5037945;28;20044;-71
2021/12/24 08:46:44;;;;;;;31.83;9.35;;;;;;;;;;5033798;28;20113;-72
2021/12/24 08:49:10;;;;;;;23.23;8.48;;;;;;;;;;5034195;28;20657;-72
2021/12/24 08:51:36;;;;;;;26.75;9.48;;;;;;;;;;5034483;28;20221;-72
2021/12/24 08:54:02;;;;;;;26.70;8.88;;;;;;;;;;5041743;28;20122;-71
2021/12/24 08:56:28;;;;;;;33.60;9.23;;;;;;;;;;5039710;28;20618;-72
2021/12/24 08:58:54;;;;;;;25.25;8.35;;;;;;;;;;5043547;28;20119;-71
2021/12/24 09:01:20;;;;;;;24.23;8.90;;;;;;;;;;5036308;28;20034;-70
2021/12/24 09:03:46;;;;;;;24.80;7.88;;;;;;;;;;5035377;28;20048;-71
2021/12/24 09:06:12;;;;;;;25.88;7.22;;;;;;;;;;5034778;28;20041;-72
2021/12/24 09:08:42;;;;;;;24.10;7.28;;;;;;;;;;5037367;28;20072;-72
2021/12/24 09:11:08;;;;;;;29.30;8.02;;;;;;;;;;5033605;28;20419;-72
2021/12/24 09:13:34;;;;;;;23.98;8.10;;;;;;;;;;5033189;28;20763;-71
2021/12/24 09:16:00;;;;;;;23.75;7.28;;;;;;;;;;5032331;28;20052;-73
2021/12/24 09:18:26;;;;;;;29.25;8.27;;;;;;;;;;5033753;28;20041;-71
2021/12/24 09:20:54;;;;;;;26.30;7.90;;;;;;;;;;5033843;28;20051;-71
2021/12/24 09:23:20;;;;;;;27.80;7.95;;;;;;;;;;5037078;28;20406;-73
2021/12/24 09:25:46;;;;;;;28.85;8.43;;;;;;;;;;5033579;28;20044;-73
2021/12/24 09:28:12;;;;;;;28.85;8.68;;;;;;;;;;5033352;28;20046;-72
2021/12/24 09:30:38;;;;;;;29.73;8.65;;;;;;;;;;5033110;28;20048;-73
2021/12/24 09:33:05;;;;;;;28.42;8.57;;;;;;;;;;5044186;28;20041;-72
2021/12/24 09:35:31;;;;;;;33.38;8.65;;;;;;;;;;5036857;28;20428;-73
2021/12/24 09:37:58;;;;;;;35.92;8.52;;;;;;;;;;5045336;28;20121;-73
2021/12/24 09:40:24;;;;;;;27.60;8.55;;;;;;;;;;5032874;28;20049;-73
2021/12/24 09:42:50;;;;;;;32.13;9.13;;;;;;;;;;5034319;28;20038;-72
2021/12/24 09:45:16;;;;;;;23.98;8.45;;;;;;;;;;5032816;28;20041;-72
2021/12/24 09:47:43;;;;;;;29.80;8.65;;;;;;;;;;5033214;28;20074;-72
2021/12/24 09:50:11;;;;;;;30.23;8.70;;;;;;;;;;5026567;28;20551;-72
2021/12/24 09:52:41;;;;;;;26.92;8.40;;;;;;;;;;5030110;28;20037;-72
2021/12/24 09:55:08;;;;;;;30.42;8.32;;;;;;;;;;5032487;28;20045;-72
2021/12/24 09:57:34;;;;;;;32.20;7.95;;;;;;;;;;5037692;28;20072;-72
2021/12/24 10:00:00;;;;;;;28.75;7.35;;;;;;;;;;5032046;28;20046;-72
2021/12/24 10:02:35;;;;;;;25.73;6.63;;;;;;;;;;5037925;28;20095;-72
2021/12/24 10:05:01;;;;;;;19.33;6.80;;;;;;;;;;5013018;28;20049;-72
2021/12/24 10:07:27;;;;;;;21.90;6.65;;;;;;;;;;5020066;28;20041;-73
2021/12/24 10:10:05;;;;;;;25.58;7.15;;;;;;;;;;5044660;28;20041;-72
2021/12/24 10:12:30;;;;;;;22.75;6.47;;;;;;;;;;5049292;28;20099;-73
2021/12/24 10:14:57;;;;;;;24.75;7.10;;;;;;;;;;5034016;28;20037;-72
2021/12/24 10:17:26;;;;;;;22.88;6.43;;;;;;;;;;5051032;28;20041;-74
2021/12/24 10:19:53;;;;;;;29.17;7.70;;;;;;;;;;5052264;28;20037;-74
2021/12/24 10:22:19;;;;;;;21.90;6.80;;;;;;;;;;5039752;28;20053;-76
2021/12/24 10:25:02;;;;;;;27.70;7.40;;;;;;;;;;5034674;28;20060;-74
2021/12/24 10:27:32;;;;;;;25.83;6.55;;;;;;;;;;5035527;28;20045;-73
2021/12/24 10:29:59;;;;;;;29.83;7.30;;;;;;;;;;5054034;22;20087;-65
2021/12/24 10:32:26;;;;;;;29.33;6.72;;;;;;;;;;5031783;28;20139;-65
2021/12/24 10:34:52;;;;;;;23.73;7.10;;;;;;;;;;5036359;28;20037;-65
2021/12/24 10:37:26;;;;;;;26.42;6.90;;;;;;;;;;5047444;28;20052;-65
2021/12/24 10:39:55;;;;;;;17.80;5.75;;;;;;;;;;5034527;28;20049;-65
2021/12/24 10:42:21;;;;;;;27.27;7.07;;;;;;;;;;5029764;28;20515;-65
2021/12/24 10:44:48;;;;;;;23.95;6.20;;;;;;;;;;5030107;28;20122;-65
2021/12/24 10:47:15;;;;;;;30.85;6.90;;;;;;;;;;5027387;28;20029;-65
2021/12/24 10:54:52;;;;;;;22.20;6.95;;;;;;;;;;5026233;28;20431;-66
2021/12/24 10:57:19;;;;;;;21.30;6.50;;;;;;;;;;5023644;28;20030;-65
2021/12/24 10:59:48;;;;;;;23.42;7.32;;;;;;;;;;5030525;28;20040;-66
2021/12/24 11:02:14;;;;;;;32.47;8.40;;;;;;;;;;5030671;28;20048;-67
2021/12/24 11:04:40;;;;;;;25.67;7.95;;;;;;;;;;5031190;28;20037;-66
2021/12/24 11:07:26;;;;;;;27.77;8.48;;;;;;;;;;5030422;28;20088;-65
2021/12/24 11:10:12;;;;;;;21.90;7.65;;;;;;;;;;5030132;28;20069;-66
2021/12/24 11:12:48;;;;;;;25.73;7.63;;;;;;;;;;5026089;28;20041;-66
2021/12/24 11:15:18;;;;;;;24.13;7.82;;;;;;;;;;5023579;28;20037;-65
2021/12/24 11:17:44;;;;;;;26.48;8.18;;;;;;;;;;5027584;28;20487;-65
2021/12/24 11:20:11;;;;;;;21.10;7.35;;;;;;;;;;5030263;28;20102;-65
2021/12/24 11:22:49;;;;;;;29.35;8.55;;;;;;;;;;5028225;28;20079;-65
2021/12/24 11:25:15;;;;;;;31.95;8.30;;;;;;;;;;5029378;28;20067;-64
2021/12/24 11:27:41;;;;;;;25.98;7.85;;;;;;;;;;5031394;28;20057;-66
2021/12/24 11:30:07;;;;;;;25.40;8.05;;;;;;;;;;5030550;28;20576;-66
2021/12/24 11:32:34;;;;;;;23.52;6.82;;;;;;;;;;5030673;28;20490;-66
2021/12/24 11:35:00;;;;;;;17.83;5.82;;;;;;;;;;5030552;28;20037;-66
2021/12/24 11:37:27;;;;;;;21.55;4.80;;;;;;;;;;5029959;28;20056;-65
2021/12/24 11:39:53;;;;;;;19.33;5.30;;;;;;;;;;5030576;28;20144;-65
2021/12/24 11:42:21;;;;;;;13.57;4.82;;;;;;;;;;5027926;28;20128;-65
2021/12/24 11:44:48;;;;;;;14.85;4.93;;;;;;;;;;5028403;28;20617;-65
2021/12/24 11:47:15;;;;;;;16.88;5.05;;;;;;;;;;5028171;28;20056;-66
2021/12/24 11:49:41;;;;;;;15.75;5.90;;;;;;;;;;5028958;28;20033;-64
2021/12/24 11:52:07;;;;;;;4.78;2.08;;;;;;;;;;5030683;28;20041;-65
2021/12/24 11:54:33;;;;;;;2.88;1.17;;;;;;;;;;5029650;28;20041;-65
2021/12/24 11:56:59;;;;;;;1.73;0.80;;;;;;;;;;5030298;28;20065;-65
2021/12/24 11:59:38;;;;;;;2.28;1.13;;;;;;;;;;5030909;28;20041;-65
2021/12/24 12:02:04;;;;;;;0.80;0.80;;;;;;;;;;5024240;28;20506;-65
2021/12/24 12:04:30;;;;;;;2.05;1.85;;;;;;;;;;5030719;28;20160;-64
2021/12/24 12:07:17;;;;;;;1.50;1.13;;;;;;;;;;5029466;28;20045;-66
2021/12/24 12:09:43;;;;;;;1.77;1.30;;;;;;;;;;5024191;28;20519;-65
2021/12/24 12:12:14;;;;;;;1.92;1.20;;;;;;;;;;5025173;28;20041;-65
2021/12/24 12:14:41;;;;;;;1.77;1.60;;;;;;;;;;5023789;28;20045;-65
2021/12/24 12:17:08;;;;;;;2.20;1.65;;;;;;;;;;5010615;28;20052;-66
2021/12/24 12:25:01;;;;;;;1.95;1.75;;;;;;;;;;5026028;28;20033;-66
2021/12/24 12:27:37;;;;;;;2.97;1.70;;;;;;;;;;5021795;28;20045;-64
2021/12/24 12:30:22;;;;;;;2.17;1.70;;;;;;;;;;5024059;28;20510;-65
2021/12/24 12:32:49;;;;;;;2.75;1.70;;;;;;;;;;5026584;28;20045;-64
2021/12/24 12:35:15;;;;;;;1.90;1.50;;;;;;;;;;5023215;28;20037;-64
2021/12/24 12:37:41;;;;;;;1.70;1.60;;;;;;;;;;5027886;28;20116;-65
2021/12/24 12:40:13;;;;;;;1.95;1.60;;;;;;;;;;5026926;28;20124;-65
2021/12/24 12:42:49;;;;;;;1.60;1.40;;;;;;;;;;5027204;28;20103;-65
2021/12/24 12:45:15;;;;;;;1.70;1.50;;;;;;;;;;5025674;28;20038;-65
2021/12/24 12:47:55;;;;;;;2.00;1.60;;;;;;;;;;5022273;28;20125;-64
2021/12/24 12:50:22;;;;;;;2.55;1.60;;;;;;;;;;5024384;28;20072;-65
2021/12/24 12:52:48;;;;;;;1.88;1.42;;;;;;;;;;5028934;28;20068;-65
2021/12/24 12:55:28;;;;;;;2.00;1.80;;;;;;;;;;5031833;28;20043;-65
2021/12/24 12:58:13;;;;;;;3.55;2.00;;;;;;;;;;5032345;28;20116;-64
2021/12/24 13:00:39;;;;;;;2.53;1.67;;;;;;;;;;5031021;28;20068;-64
2021/12/24 13:03:07;;;;;;;2.20;1.83;;;;;;;;;;5031091;28;20049;-64
2021/12/24 13:05:34;;;;;;;3.42;2.10;;;;;;;;;;5033669;28;20395;-64
2021/12/24 13:08:11;;;;;;;3.03;2.17;;;;;;;;;;5032261;28;20045;-64
2021/12/24 13:10:38;;;;;;;3.13;2.45;;;;;;;;;;5033862;28;20037;-64
2021/12/24 13:13:05;;;;;;;2.88;2.42;;;;;;;;;;5031879;28;20128;-64
2021/12/24 13:15:33;;;;;;;3.20;2.90;;;;;;;;;;5025044;28;20042;-64
2021/12/24 13:18:05;;;;;;;3.70;3.30;;;;;;;;;;5031544;28;20034;-64
2021/12/24 13:22:26;;;;;;;4.18;2.88;;;;;;;;;;5033487;28;20041;-64
2021/12/24 13:23:23;;;;;;;3.75;3.33;;;;;;;;;;5033486;28;20060;-64
2021/12/24 13:25:49;;;;;;;3.55;3.20;;;;;;;;;;5025960;28;20176;-63
2021/12/24 13:28:15;;;;;;;4.13;3.55;;;;;;;;;;5031276;28;20037;-63
2021/12/24 13:30:41;;;;;;;4.32;3.40;;;;;;;;;;5032241;28;20044;-63
2021/12/24 13:33:08;;;;;;;4.78;3.38;;;;;;;;;;5033080;28;20041;-64
2021/12/24 13:35:41;;;;;;;4.20;3.30;;;;;;;;;;5032610;28;20030;-63
2021/12/24 13:38:33;;;;;;;3.70;3.10;;;;;;;;;;5033485;28;20119;-64
2021/12/24 13:40:59;;;;;;;3.00;2.42;;;;;;;;;;5029855;28;20049;-64
2021/12/24 13:43:25;;;;;;;2.95;2.25;;;;;;;;;;5030891;28;20120;-64
2021/12/24 13:45:52;;;;;;;4.28;2.92;;;;;;;;;;5032677;28;20112;-63
2021/12/24 13:48:27;;;;;;;3.22;2.92;;;;;;;;;;5032934;28;20049;-64
2021/12/24 13:56:14;;;;;;;4.82;3.00;;;;;;;;;;5031591;28;20534;-63
2021/12/24 13:58:40;;;;;;;3.25;2.90;;;;;;;;;;5032915;28;20519;-63
2021/12/24 14:01:06;;;;;;;4.45;3.05;;;;;;;;;;5032231;28;20281;-63
2021/12/24 14:03:34;;;;;;;3.03;2.65;;;;;;;;;;5032706;28;20124;-63
2021/12/24 14:06:05;;;;;;;3.22;2.78;;;;;;;;;;5032690;28;20049;-63
2021/12/24 14:08:36;;;;;;;4.00;2.47;;;;;;;;;;5031028;28;20501;-64
2021/12/24 14:11:13;;;;;;;3.80;2.75;;;;;;;;;;5034861;28;20038;-64
2021/12/24 14:13:45;;;;;;;2.72;2.50;;;;;;;;;;5031477;28;20069;-64
2021/12/24 14:24:06;;;;;;;3.63;2.80;;;;;;;;;;5022668;28;20502;-64
2021/12/24 14:26:35;;;;;;;3.70;2.65;;;;;;;;;;5024943;28;20095;-64
2021/12/24 14:29:05;;;;;;;4.32;2.65;;;;;;;;;;5024318;28;20060;-64
2021/12/24 14:31:31;;;;;;;3.38;2.78;;;;;;;;;;5028208;28;20037;-64
2021/12/24 14:33:57;;;;;;;4.18;3.03;;;;;;;;;;5027046;28;20117;-63
2021/12/24 14:36:23;;;;;;;3.85;2.78;;;;;;;;;;5023900;28;20120;-63
2021/12/24 14:38:49;;;;;;;3.72;3.00;;;;;;;;;;5024424;28;20064;-65
2021/12/24 14:41:18;;;;;;;3.75;2.90;;;;;;;;;;5028929;28;20134;-65
2021/12/24 14:43:45;;;;;;;3.85;3.17;;;;;;;;;;5030216;28;20050;-65
2021/12/24 14:46:11;;;;;;;3.20;2.90;;;;;;;;;;5026052;28;20545;-65
2021/12/24 14:48:37;;;;;;;4.53;2.97;;;;;;;;;;5024225;28;20038;-65
2021/12/24 14:51:08;;;;;;;5.93;4.18;;;;;;;;;;5025257;28;20045;-65
2021/12/24 14:53:34;;;;;;;8.98;6.82;;;;;;;;;;5026597;28;20069;-65
2021/12/24 14:56:02;;;;;;;6.30;5.40;;;;;;;;;;5028923;28;20648;-66
2021/12/24 14:58:27;;;;;;;4.55;3.83;;;;;;;;;;5031967;28;20124;-65
2021/12/24 15:00:54;;;;;;;4.07;3.58;;;;;;;;;;5029764;28;20121;-65
2021/12/24 15:03:21;;;;;;;4.88;3.90;;;;;;;;;;5028899;28;20484;-64
2021/12/24 15:05:50;;;;;;;4.18;3.28;;;;;;;;;;5027880;28;20045;-64
2021/12/24 15:08:24;;;;;;;5.40;4.00;;;;;;;;;;5016016;28;20065;-64
2021/12/24 15:10:57;;;;;;;16.58;13.27;;;;;;;;;;5030580;28;20075;-65
2021/12/24 15:13:25;;;;;;;7.28;6.10;;;;;;;;;;5031040;28;20041;-64
2021/12/24 15:15:52;;;;;;;5.30;4.65;;;;;;;;;;5030289;28;20498;-65
2021/12/24 15:18:18;;;;;;;5.68;4.53;;;;;;;;;;5030775;28;20072;-64
2021/12/24 15:20:44;;;;;;;4.28;3.30;;;;;;;;;;5030386;28;20120;-64
2021/12/24 15:23:10;;;;;;;3.53;3.17;;;;;;;;;;5028599;28;20045;-65
2021/12/24 15:25:37;;;;;;;5.10;3.53;;;;;;;;;;5031249;28;20059;-65
2021/12/24 15:28:08;;;;;;;4.45;3.45;;;;;;;;;;5030594;28;20038;-65
2021/12/24 15:30:35;;;;;;;7.38;4.65;;;;;;;;;;5028249;28;20121;-65
2021/12/24 15:33:01;;;;;;;5.50;4.35;;;;;;;;;;5030187;28;20136;-65
2021/12/24 15:35:27;;;;;;;7.05;4.05;;;;;;;;;;5030989;28;20065;-64
2021/12/24 15:37:53;;;;;;;31.58;18.58;;;;;;;;;;5031366;28;20320;-65
2021/12/24 15:40:19;;;;;;;7.78;4.35;;;;;;;;;;5029896;28;20120;-65
2021/12/24 15:42:45;;;;;;;8.43;3.00;;;;;;;;;;5030725;28;20457;-66
2021/12/24 15:45:11;;;;;;;4.72;3.38;;;;;;;;;;5029807;28;20045;-65
2021/12/24 15:47:37;;;;;;;6.85;4.30;;;;;;;;;;5030145;28;20140;-64
2021/12/24 15:50:04;;;;;;;4.78;3.92;;;;;;;;;;5030300;28;20116;-64
2021/12/24 15:52:30;;;;;;;5.47;3.78;;;;;;;;;;5029098;28;20038;-65
2021/12/24 15:54:56;;;;;;;6.07;4.03;;;;;;;;;;5030735;28;20080;-65
2021/12/24 15:57:22;;;;;;;5.97;4.07;;;;;;;;;;5034116;28;20045;-64
2021/12/24 15:59:48;;;;;;;5.13;3.40;;;;;;;;;;5027789;28;20056;-67
2021/12/24 16:02:14;;;;;;;3.97;3.25;;;;;;;;;;5024848;28;20199;-67
2021/12/24 16:04:40;;;;;;;4.35;3.55;;;;;;;;;;5030092;28;20057;-67
2021/12/24 16:07:06;;;;;;;4.13;3.42;;;;;;;;;;5030331;28;20486;-67
2021/12/24 16:09:32;;;;;;;3.92;3.25;;;;;;;;;;5027890;28;20403;-68
2021/12/24 16:11:58;;;;;;;4.57;3.30;;;;;;;;;;5027987;28;20037;-67
2021/12/24 16:14:25;;;;;;;4.88;3.60;;;;;;;;;;5027666;28;20037;-68
2021/12/24 16:16:51;;;;;;;4.18;3.05;;;;;;;;;;5030500;28;20033;-67
2021/12/24 16:19:18;;;;;;;6.00;3.60;;;;;;;;;;5030612;28;20037;-67
2021/12/24 16:21:44;;;;;;;6.78;4.50;;;;;;;;;;5029576;28;20076;-67
2021/12/24 16:24:10;;;;;;;6.38;3.75;;;;;;;;;;5027057;28;20444;-67
2021/12/24 16:26:36;;;;;;;6.75;5.30;;;;;;;;;;5028088;28;20412;-67
2021/12/24 16:31:36;;;;;;;6.47;4.20;;;;;;;;;;5046004;28;20047;-73
2021/12/24 16:34:04;;;;;;;5.55;4.28;;;;;;;;;;5051299;28;20116;-73